McAdoo, Texas
Current Conditions -  °F | °C
As of 1:53 AM on Monday 22 Dec 2014 (Local Time) from KLBB Reporting Station
Clear Clear  
Wind Chill: 52°   Ceiling: Unl
Heat Index: 52°   Visibility: 10mi
Dew Point: 30°   Wind: 20mph
Humidity: 43%   Direction: 300°WNW
Pressure: 29.61"   Gusts: 28mph
Location:  33.73°N, 101.01°W
Report Text: KLBB 220753Z 30017G24KT 10SM CLR 11/M01 A2961 RMK AO2 SLP995 T01111011
Loading
Personal Weather Stations






























Interactive Weather Map New forecast layout! Learn more

10-Day Weather Forecast

Advertisements
Track Severe Weather on mobile